createdAt,value
2018-05-16T00:01:17.518Z,10.97
2018-05-16T00:03:45.177Z,10.83
2018-05-16T00:06:12.748Z,11.23
2018-05-16T00:08:40.359Z,11.27
2018-05-16T00:11:07.902Z,10.27
2018-05-16T00:13:35.442Z,10.67
2018-05-16T00:16:03.077Z,11.30
2018-05-16T00:18:30.615Z,10.90
2018-05-16T00:20:58.180Z,10.27
2018-05-16T00:23:25.730Z,11.37
2018-05-16T00:25:53.328Z,10.90
2018-05-16T00:28:20.873Z,12.43
2018-05-16T00:30:48.471Z,11.57
2018-05-16T00:33:16.054Z,11.17
2018-05-16T00:35:43.606Z,9.70
2018-05-16T00:38:11.202Z,9.93
2018-05-16T00:40:38.947Z,10.13
2018-05-16T00:43:06.518Z,10.50
2018-05-16T00:45:34.077Z,11.43
2018-05-16T00:48:01.615Z,11.53
2018-05-16T00:50:29.149Z,11.83
2018-05-16T00:52:56.686Z,12.10
2018-05-16T00:55:24.209Z,12.07
2018-05-16T00:57:51.744Z,12.83
2018-05-16T01:00:19.431Z,11.83
2018-05-16T01:02:46.965Z,11.53
2018-05-16T01:05:14.655Z,12.20
2018-05-16T01:07:42.218Z,12.07
2018-05-16T01:10:09.745Z,12.33
2018-05-16T01:12:37.308Z,13.23
2018-05-16T01:15:05.887Z,12.80
2018-05-16T01:17:33.470Z,12.97
2018-05-16T01:20:00.992Z,12.33
2018-05-16T01:22:28.560Z,11.83
2018-05-16T01:24:56.265Z,11.43
2018-05-16T01:27:24.066Z,12.27
2018-05-16T01:29:51.649Z,12.73
2018-05-16T01:32:19.252Z,13.27
2018-05-16T01:34:46.783Z,12.40
2018-05-16T01:37:14.436Z,12.67
2018-05-16T01:39:41.992Z,13.07
2018-05-16T01:42:09.575Z,13.07
2018-05-16T01:44:37.253Z,13.63
2018-05-16T01:47:04.795Z,14.63
2018-05-16T01:49:32.329Z,14.00
2018-05-16T01:51:59.874Z,14.83
2018-05-16T01:54:27.441Z,14.97
2018-05-16T01:56:54.955Z,14.90
2018-05-16T01:59:22.505Z,15.63
2018-05-16T02:01:50.082Z,15.60
2018-05-16T02:04:17.646Z,14.93
2018-05-16T02:06:45.233Z,14.60
2018-05-16T02:09:12.785Z,14.57
2018-05-16T02:11:40.343Z,12.80
2018-05-16T02:14:07.941Z,12.70
2018-05-16T02:16:36.441Z,12.03
2018-05-16T02:19:03.984Z,12.37
2018-05-16T02:21:31.601Z,11.97
2018-05-16T02:23:59.820Z,12.03
2018-05-16T02:26:27.399Z,11.50
2018-05-16T02:28:54.918Z,11.00
2018-05-16T02:31:22.498Z,12.20
2018-05-16T02:33:50.048Z,11.00
2018-05-16T02:36:17.582Z,11.23
2018-05-16T02:38:45.239Z,12.03
2018-05-16T02:41:12.799Z,11.53
2018-05-16T02:43:40.336Z,11.10
2018-05-16T02:46:07.901Z,12.37
2018-05-16T02:48:35.457Z,12.63
2018-05-16T02:51:03.009Z,14.00
2018-05-16T02:53:30.575Z,13.80
2018-05-16T02:55:58.237Z,13.07
2018-05-16T02:58:25.816Z,12.30
2018-05-16T03:00:53.384Z,13.00
2018-05-16T03:03:21.007Z,13.37
2018-05-16T03:05:48.899Z,13.97
2018-05-16T03:08:16.513Z,12.20
2018-05-16T03:10:44.134Z,12.47
2018-05-16T03:13:11.696Z,12.80
2018-05-16T03:15:39.239Z,13.60
2018-05-16T03:18:06.791Z,13.60
2018-05-16T03:20:34.362Z,13.30
2018-05-16T03:23:01.930Z,14.13
2018-05-16T03:25:29.550Z,13.47
2018-05-16T03:27:57.347Z,14.60
2018-05-16T03:30:25.061Z,15.20
2018-05-16T03:32:52.612Z,14.37
2018-05-16T03:35:20.176Z,16.00
2018-05-16T03:37:47.709Z,15.53
2018-05-16T03:40:15.245Z,16.23
2018-05-16T03:42:42.815Z,15.73
2018-05-16T03:45:10.366Z,17.13
2018-05-16T03:47:37.896Z,18.17
2018-05-16T03:50:05.455Z,18.33
2018-05-16T03:52:33.016Z,18.77
2018-05-16T03:55:00.592Z,18.63
2018-05-16T03:57:40.162Z,18.23
2018-05-16T04:00:19.641Z,19.17
2018-05-16T04:02:58.997Z,19.57
2018-05-16T04:05:26.562Z,18.07
2018-05-16T04:07:54.092Z,19.43
2018-05-16T04:10:21.664Z,20.33
2018-05-16T04:12:49.236Z,19.83
2018-05-16T04:15:16.754Z,19.50
2018-05-16T04:17:44.306Z,19.40
2018-05-16T04:20:11.851Z,18.63
2018-05-16T04:22:39.378Z,20.60
2018-05-16T04:25:07.956Z,19.70
2018-05-16T04:27:35.526Z,20.37
2018-05-16T04:30:03.409Z,19.73
2018-05-16T04:32:31.031Z,20.67
2018-05-16T04:34:58.578Z,21.53
2018-05-16T04:37:26.164Z,21.73
2018-05-16T04:39:53.707Z,21.67
2018-05-16T04:42:21.328Z,22.37
2018-05-16T04:44:48.865Z,21.40
2018-05-16T04:47:16.419Z,22.40
2018-05-16T04:49:43.973Z,20.93
2018-05-16T04:52:11.525Z,20.73
2018-05-16T04:54:39.176Z,21.20
2018-05-16T04:57:06.954Z,19.90
2018-05-16T04:59:34.885Z,20.87
2018-05-16T05:02:02.432Z,20.17
2018-05-16T05:04:29.999Z,20.67
2018-05-16T05:06:57.524Z,22.17
2018-05-16T05:09:25.241Z,21.30
2018-05-16T05:11:52.860Z,20.53
2018-05-16T05:14:20.455Z,21.63
2018-05-16T05:16:48.012Z,20.30
2018-05-16T05:19:15.568Z,20.70
2018-05-16T05:21:43.247Z,20.77
2018-05-16T05:24:10.810Z,21.57
2018-05-16T05:26:38.367Z,20.00
2018-05-16T05:29:05.917Z,19.23
2018-05-16T05:31:33.636Z,18.17
2018-05-16T05:34:01.232Z,17.87
2018-05-16T05:36:28.804Z,17.40
2018-05-16T05:38:56.362Z,18.00
2018-05-16T05:41:24.708Z,17.53
2018-05-16T05:43:52.260Z,18.13
2018-05-16T05:46:19.790Z,15.27
2018-05-16T05:48:47.460Z,16.73
2018-05-16T05:51:14.999Z,16.63
2018-05-16T05:53:42.591Z,15.37
2018-05-16T05:56:10.267Z,14.53
2018-05-16T05:58:37.797Z,15.43
2018-05-16T06:01:05.337Z,15.07
2018-05-16T06:03:32.952Z,13.47
2018-05-16T06:06:00.530Z,12.67
2018-05-16T06:08:28.088Z,13.33
2018-05-16T06:10:55.650Z,12.67
2018-05-16T06:13:23.257Z,9.70
2018-05-16T06:15:50.886Z,10.53
2018-05-16T06:18:18.497Z,12.37
2018-05-16T06:20:47.051Z,10.67
2018-05-16T06:23:14.611Z,10.70
2018-05-16T06:25:42.174Z,10.90
2018-05-16T06:28:09.912Z,9.80
2018-05-16T06:30:37.578Z,11.07
2018-05-16T06:33:05.075Z,10.80
2018-05-16T06:35:32.633Z,9.97
2018-05-16T06:38:00.175Z,9.43
2018-05-16T06:40:28.835Z,9.53
2018-05-16T06:42:56.467Z,8.53
2018-05-16T06:45:24.039Z,8.00
2018-05-16T06:47:51.571Z,7.93
2018-05-16T06:50:19.180Z,7.43
2018-05-16T06:52:46.755Z,7.43
2018-05-16T06:55:14.368Z,7.10
2018-05-16T06:57:43.635Z,7.83
2018-05-16T07:00:11.185Z,7.27
2018-05-16T07:02:38.716Z,6.80
2018-05-16T07:05:06.263Z,7.33
2018-05-16T07:07:34.008Z,7.13
2018-05-16T07:10:01.593Z,7.00
2018-05-16T07:12:29.153Z,7.57
2018-05-16T07:14:57.136Z,6.80
2018-05-16T07:17:24.711Z,7.20
2018-05-16T07:19:52.293Z,7.30
2018-05-16T07:22:19.906Z,6.90
2018-05-16T07:24:47.541Z,7.30
2018-05-16T07:27:15.078Z,7.77
2018-05-16T07:29:43.544Z,7.80
2018-05-16T07:32:11.125Z,7.80
2018-05-16T07:34:38.679Z,8.07
2018-05-16T07:37:06.282Z,7.37
2018-05-16T07:39:33.798Z,8.03
2018-05-16T07:42:01.382Z,8.17
2018-05-16T07:44:29.080Z,7.67
2018-05-16T07:46:57.635Z,8.33
2018-05-16T07:49:25.181Z,8.27
2018-05-16T07:51:53.531Z,8.80
2018-05-16T07:54:21.090Z,9.80
2018-05-16T07:56:48.616Z,8.60
2018-05-16T07:59:16.204Z,8.63
2018-05-16T08:01:43.760Z,10.50
2018-05-16T08:04:11.325Z,11.90
2018-05-16T08:06:39.088Z,12.07
2018-05-16T08:09:06.641Z,12.67
2018-05-16T08:11:34.212Z,9.00
2018-05-16T08:14:01.763Z,7.37
2018-05-16T08:16:29.500Z,8.30
2018-05-16T08:18:57.048Z,7.53
2018-05-16T08:21:24.595Z,7.20
2018-05-16T08:23:52.128Z,7.60
2018-05-16T08:26:19.674Z,6.10
2018-05-16T08:28:47.368Z,6.10
2018-05-16T08:31:14.963Z,4.57
2018-05-16T08:33:42.673Z,5.10
2018-05-16T08:36:10.342Z,4.50
2018-05-16T08:38:37.850Z,4.73
2018-05-16T08:41:05.498Z,4.43
2018-05-16T08:43:33.207Z,4.27
2018-05-16T08:46:00.708Z,4.80
2018-05-16T08:48:28.242Z,4.67
2018-05-16T08:51:05.626Z,5.47
2018-05-16T08:53:33.145Z,5.33
2018-05-16T08:56:00.730Z,5.00
2018-05-16T08:58:28.313Z,6.20
2018-05-16T09:00:55.938Z,6.30
2018-05-16T09:03:23.444Z,6.70
2018-05-16T09:05:51.031Z,6.97
2018-05-16T09:08:19.647Z,6.77
2018-05-16T09:10:47.192Z,6.87
2018-05-16T09:13:14.897Z,6.23
2018-05-16T09:15:42.435Z,6.90
2018-05-16T09:18:09.983Z,6.83
2018-05-16T09:20:37.512Z,17.60
2018-05-16T09:23:05.048Z,5.43
2018-05-16T09:25:32.590Z,5.40
2018-05-16T09:28:00.125Z,5.97
2018-05-16T09:30:27.717Z,6.03
2018-05-16T09:32:55.258Z,5.30
2018-05-16T09:35:22.835Z,5.20
2018-05-16T09:37:50.540Z,5.87
2018-05-16T09:40:18.325Z,5.00
2018-05-16T09:42:45.831Z,5.87
2018-05-16T09:45:13.645Z,5.17
2018-05-16T09:47:41.161Z,5.03
2018-05-16T09:50:08.853Z,6.40
2018-05-16T09:52:36.393Z,7.73
2018-05-16T09:55:04.652Z,7.07
2018-05-16T09:57:32.184Z,6.63
2018-05-16T09:59:59.800Z,6.00
2018-05-16T10:02:27.327Z,6.13
2018-05-16T10:04:54.961Z,7.23
2018-05-16T10:07:22.685Z,8.00
2018-05-16T10:09:50.285Z,7.77
2018-05-16T10:12:18.213Z,7.97
2018-05-16T10:14:45.768Z,8.30
2018-05-16T10:17:13.353Z,8.50
2018-05-16T10:19:41.065Z,7.90
2018-05-16T10:22:08.646Z,7.60
2018-05-16T10:24:36.316Z,7.10
2018-05-16T10:27:04.187Z,7.47
2018-05-16T10:29:31.770Z,7.10
2018-05-16T10:31:59.508Z,7.30
2018-05-16T10:34:27.309Z,7.03
2018-05-16T10:36:55.021Z,6.93
2018-05-16T10:39:22.877Z,7.87
2018-05-16T10:41:50.299Z,7.63
2018-05-16T10:44:18.321Z,8.27
2018-05-16T10:46:45.856Z,7.80
2018-05-16T10:49:13.341Z,7.57
2018-05-16T10:51:40.910Z,7.50
2018-05-16T10:54:08.446Z,7.87
2018-05-16T10:56:36.034Z,8.80
2018-05-16T10:59:03.624Z,10.87
2018-05-16T11:01:31.196Z,8.63
2018-05-16T11:03:58.747Z,8.23
2018-05-16T11:06:26.293Z,9.00
2018-05-16T11:08:54.948Z,8.63
2018-05-16T11:11:22.609Z,9.33
2018-05-16T11:13:50.157Z,7.80
2018-05-16T11:16:17.719Z,7.37
2018-05-16T11:18:45.389Z,6.60
2018-05-16T11:21:13.665Z,6.70
2018-05-16T11:23:41.265Z,5.60
2018-05-16T11:26:08.797Z,6.33
2018-05-16T11:28:36.343Z,6.03
2018-05-16T11:31:03.945Z,6.13
2018-05-16T11:33:31.495Z,5.43
2018-05-16T11:35:59.101Z,6.80
2018-05-16T11:38:26.632Z,5.93
2018-05-16T11:40:54.179Z,5.53
2018-05-16T11:43:21.768Z,5.37
2018-05-16T11:45:49.924Z,5.50
2018-05-16T11:48:17.466Z,11.13
2018-05-16T11:50:45.062Z,7.10
2018-05-16T11:53:13.476Z,6.77
2018-05-16T11:55:41.002Z,6.03
2018-05-16T11:58:08.705Z,5.57
2018-05-16T12:00:36.857Z,6.33
2018-05-16T12:03:09.068Z,8.07
2018-05-16T12:05:41.782Z,7.10
2018-05-16T12:08:10.961Z,7.73
2018-05-16T12:10:50.209Z,9.30
2018-05-16T12:13:18.433Z,10.17
2018-05-16T12:15:46.060Z,8.60
2018-05-16T12:18:13.769Z,10.53
2018-05-16T12:20:41.633Z,9.60
2018-05-16T12:23:09.276Z,7.73
2018-05-16T12:25:36.800Z,7.77
2018-05-16T12:28:04.369Z,6.90
2018-05-16T12:30:32.487Z,6.57
2018-05-16T12:33:00.830Z,6.20
2018-05-16T12:35:30.256Z,4.97
2018-05-16T12:37:58.023Z,4.57
2018-05-16T12:40:25.797Z,4.50
2018-05-16T12:43:05.173Z,4.33
2018-05-16T12:45:33.391Z,4.67
2018-05-16T12:48:00.984Z,4.77
2018-05-16T12:50:28.922Z,5.23
2018-05-16T12:52:56.552Z,5.00
2018-05-16T12:55:24.340Z,5.00
2018-05-16T12:57:51.970Z,4.70
2018-05-16T13:00:19.740Z,4.33
2018-05-16T13:02:47.436Z,4.73
2018-05-16T13:05:15.214Z,3.60
2018-05-16T13:07:42.796Z,4.00
2018-05-16T13:10:10.537Z,10.80
2018-05-16T13:12:38.103Z,4.65
2018-05-16T13:15:05.629Z,4.37
2018-05-16T13:17:33.154Z,4.97
2018-05-16T13:20:00.678Z,5.37
2018-05-16T13:22:28.272Z,4.43
2018-05-16T13:24:56.356Z,3.35
2018-05-16T13:27:24.791Z,2.47
2018-05-16T13:29:52.835Z,2.50
2018-05-16T13:32:20.473Z,2.97
2018-05-16T13:34:48.021Z,3.30
2018-05-16T13:37:15.521Z,3.20
2018-05-16T13:39:43.044Z,3.50
2018-05-16T13:42:10.789Z,3.70
2018-05-16T13:44:38.338Z,4.30
2018-05-16T13:47:06.060Z,5.23
2018-05-16T13:49:33.724Z,5.50
2018-05-16T13:52:01.280Z,5.17
2018-05-16T13:54:28.847Z,4.97
2018-05-16T13:56:56.588Z,4.95
2018-05-16T13:59:24.828Z,3.95
2018-05-16T14:22:05.831Z,4.67
2018-05-16T14:24:54.895Z,4.90
2018-05-16T14:27:22.592Z,5.60
2018-05-16T14:29:50.123Z,5.00
2018-05-16T14:32:17.712Z,5.50
2018-05-16T14:34:45.223Z,5.70
2018-05-16T14:37:12.680Z,5.77
2018-05-16T14:39:40.132Z,6.33
2018-05-16T14:42:07.619Z,7.30
2018-05-16T14:44:35.082Z,7.37
2018-05-16T14:47:03.532Z,7.67
2018-05-16T14:49:31.065Z,7.43
2018-05-16T14:51:58.515Z,9.20
2018-05-16T14:54:26.848Z,9.27
2018-05-16T14:56:54.325Z,7.63
2018-05-16T14:59:21.800Z,9.13
2018-05-16T15:01:49.308Z,8.87
2018-05-16T15:04:23.407Z,7.10
2018-05-16T15:06:50.905Z,7.13
2018-05-16T15:09:21.486Z,6.30
2018-05-16T15:11:49.083Z,6.47
2018-05-16T15:17:07.651Z,7.07
2018-05-16T15:19:35.214Z,7.77
2018-05-16T15:22:02.994Z,7.77
2018-05-16T15:24:30.483Z,6.93
2018-05-16T15:26:57.953Z,6.17
2018-05-16T15:29:25.435Z,5.80
2018-05-16T15:31:53.144Z,6.40
2018-05-16T15:57:11.240Z,5.80
2018-05-16T15:59:38.704Z,5.30
2018-05-16T16:02:06.259Z,5.40
2018-05-16T16:04:33.737Z,6.37
2018-05-16T16:07:01.205Z,7.20
2018-05-16T16:09:28.649Z,7.90
2018-05-16T16:11:56.178Z,7.23
2018-05-16T16:14:23.666Z,6.87
2018-05-16T16:16:51.672Z,6.90
2018-05-16T16:19:19.123Z,7.87
2018-05-16T16:21:46.628Z,8.10
2018-05-16T16:44:20.149Z,7.43
2018-05-16T16:49:38.262Z,6.73
2018-05-16T17:00:38.569Z,7.47
2018-05-16T17:08:47.955Z,8.10
2018-05-16T17:11:15.428Z,8.03
2018-05-16T17:13:42.906Z,8.00
2018-05-16T17:16:10.422Z,7.20
2018-05-16T17:18:37.886Z,7.33
2018-05-16T17:26:47.149Z,6.83
2018-05-16T17:49:09.648Z,8.30
2018-05-16T17:51:39.000Z,9.53
2018-05-16T18:05:29.224Z,9.00
2018-05-16T18:07:56.712Z,9.03
2018-05-16T18:16:17.349Z,9.73
2018-05-16T18:18:44.924Z,10.23
2018-05-16T18:21:12.415Z,10.40
2018-05-16T18:23:39.911Z,9.80
2018-05-16T18:26:07.368Z,11.23
2018-05-16T18:31:25.604Z,11.23
2018-05-16T18:33:53.062Z,11.43
2018-05-16T18:36:20.524Z,10.60
2018-05-16T18:50:12.711Z,11.20
2018-05-16T18:52:40.157Z,11.90
2018-05-16T18:55:07.701Z,12.70
2018-05-16T18:57:35.169Z,11.90
2018-05-16T19:00:02.713Z,12.90
2018-05-16T19:02:30.391Z,12.33
2018-05-16T19:04:57.844Z,12.93
2018-05-16T19:07:25.302Z,14.77
2018-05-16T19:09:52.761Z,18.57
2018-05-16T19:12:20.219Z,12.90
2018-05-16T19:14:47.699Z,13.60
2018-05-16T19:17:15.152Z,12.67
2018-05-16T19:25:23.615Z,13.90
2018-05-16T19:27:51.120Z,14.33
2018-05-16T19:30:18.691Z,14.07
2018-05-16T19:32:46.163Z,13.70
2018-05-16T19:35:13.628Z,14.30
2018-05-16T19:37:41.095Z,14.30
2018-05-16T19:40:08.575Z,14.90
2018-05-16T19:42:36.141Z,15.90
2018-05-16T19:45:03.686Z,14.07
2018-05-16T19:47:31.151Z,13.43
2018-05-16T19:49:58.669Z,14.20
2018-05-16T19:52:26.395Z,15.43
2018-05-16T19:54:53.969Z,12.67
2018-05-16T19:57:21.430Z,13.87
2018-05-16T19:59:48.943Z,14.10
2018-05-16T20:02:16.475Z,14.53
2018-05-16T20:04:43.979Z,15.33
2018-05-16T20:07:11.489Z,16.17
2018-05-16T20:09:39.053Z,15.23
2018-05-16T20:12:06.593Z,14.60
2018-05-16T20:14:34.196Z,16.90
2018-05-16T20:17:01.635Z,16.23
2018-05-16T20:19:29.215Z,17.00
2018-05-16T20:21:56.708Z,17.00
2018-05-16T20:24:24.192Z,18.40
2018-05-16T20:26:51.667Z,18.40
2018-05-16T20:29:19.322Z,18.43
2018-05-16T20:31:46.794Z,20.73
2018-05-16T20:34:14.287Z,23.20
2018-05-16T20:36:41.740Z,20.70
2018-05-16T20:39:09.318Z,21.90
2018-05-16T20:41:36.797Z,21.97
2018-05-16T20:44:04.280Z,19.77
2018-05-16T20:46:31.742Z,20.30
2018-05-16T20:48:59.233Z,19.03
2018-05-16T20:51:26.863Z,16.30
2018-05-16T20:53:54.337Z,16.33
2018-05-16T20:56:21.913Z,15.13
2018-05-16T20:58:49.458Z,16.13
2018-05-16T21:01:16.898Z,15.87
2018-05-16T21:03:44.368Z,13.27
2018-05-16T21:06:11.856Z,13.83
2018-05-16T22:03:09.039Z,14.27
2018-05-16T22:05:36.510Z,14.73
2018-05-16T22:08:04.015Z,15.83
2018-05-16T22:10:31.555Z,16.07
2018-05-16T22:15:50.503Z,14.50
2018-05-16T22:18:17.971Z,14.13
2018-05-16T22:20:45.437Z,15.77
2018-05-16T22:23:12.919Z,14.73
2018-05-16T22:25:40.426Z,15.17
2018-05-16T22:28:07.887Z,13.63
2018-05-16T22:33:31.380Z,14.00
2018-05-16T22:36:04.493Z,13.37
2018-05-16T22:38:37.556Z,13.77
2018-05-16T22:41:10.672Z,12.50
2018-05-16T22:43:38.512Z,12.90
2018-05-16T22:46:05.973Z,13.17
2018-05-16T22:48:33.440Z,12.87
2018-05-16T22:51:00.908Z,11.40
2018-05-16T22:53:28.367Z,12.73
2018-05-16T22:55:55.868Z,13.27
2018-05-16T22:58:26.226Z,12.67
2018-05-16T23:00:53.702Z,12.13
2018-05-16T23:03:21.208Z,11.83
2018-05-16T23:08:39.075Z,12.57
2018-05-16T23:19:40.888Z,13.17
2018-05-16T23:22:08.375Z,12.27
2018-05-16T23:24:35.834Z,12.23
2018-05-16T23:27:03.306Z,12.67
2018-05-16T23:29:30.764Z,13.00
2018-05-16T23:31:58.263Z,13.20
2018-05-16T23:34:25.723Z,12.47
2018-05-16T23:36:53.187Z,12.17
2018-05-16T23:59:19.956Z,15.20
